sensor_id;sensor_type;location;lat;lon;timestamp;temperature;humidity
72772;SHT30;60894;42.544;1.516;2023-08-20T00:00:45;23.76;52.24
72772;SHT30;60894;42.544;1.516;2023-08-20T00:03:13;23.57;52.76
72772;SHT30;60894;42.544;1.516;2023-08-20T00:05:41;23.66;52.50
72772;SHT30;60894;42.544;1.516;2023-08-20T00:08:07;23.82;51.76
72772;SHT30;60894;42.544;1.516;2023-08-20T00:10:34;23.62;52.76
72772;SHT30;60894;42.544;1.516;2023-08-20T00:13:01;23.48;53.03
72772;SHT30;60894;42.544;1.516;2023-08-20T00:15:31;23.44;53.28
72772;SHT30;60894;42.544;1.516;2023-08-20T00:17:58;23.48;53.07
72772;SHT30;60894;42.544;1.516;2023-08-20T00:20:26;23.65;52.65
72772;SHT30;60894;42.544;1.516;2023-08-20T00:22:54;23.55;52.85
72772;SHT30;60894;42.544;1.516;2023-08-20T00:25:21;23.30;53.24
72772;SHT30;60894;42.544;1.516;2023-08-20T00:27:48;23.11;53.97
72772;SHT30;60894;42.544;1.516;2023-08-20T00:30:15;23.28;53.10
72772;SHT30;60894;42.544;1.516;2023-08-20T00:32:43;23.48;53.07
72772;SHT30;60894;42.544;1.516;2023-08-20T00:35:10;23.52;52.79
72772;SHT30;60894;42.544;1.516;2023-08-20T00:37:37;23.21;53.90
72772;SHT30;60894;42.544;1.516;2023-08-20T00:40:05;23.45;52.81
72772;SHT30;60894;42.544;1.516;2023-08-20T00:42:32;23.55;52.82
72772;SHT30;60894;42.544;1.516;2023-08-20T00:44:59;23.69;52.03
72772;SHT30;60894;42.544;1.516;2023-08-20T00:47:27;23.75;51.39
72772;SHT30;60894;42.544;1.516;2023-08-20T00:49:56;23.66;51.86
72772;SHT30;60894;42.544;1.516;2023-08-20T00:52:23;23.28;54.03
72772;SHT30;60894;42.544;1.516;2023-08-20T00:54:50;23.42;53.03
72772;SHT30;60894;42.544;1.516;2023-08-20T00:57:18;23.25;53.30
72772;SHT30;60894;42.544;1.516;2023-08-20T00:59:47;22.96;54.40
72772;SHT30;60894;42.544;1.516;2023-08-20T01:02:15;23.14;53.93
72772;SHT30;60894;42.544;1.516;2023-08-20T01:04:42;23.30;53.31
72772;SHT30;60894;42.544;1.516;2023-08-20T01:07:20;23.14;54.19
72772;SHT30;60894;42.544;1.516;2023-08-20T01:10:02;23.04;54.39
72772;SHT30;60894;42.544;1.516;2023-08-20T01:12:31;22.84;54.88
72772;SHT30;60894;42.544;1.516;2023-08-20T01:14:58;22.80;54.79
72772;SHT30;60894;42.544;1.516;2023-08-20T01:17:25;22.67;55.26
72772;SHT30;60894;42.544;1.516;2023-08-20T01:19:52;23.01;53.72
72772;SHT30;60894;42.544;1.516;2023-08-20T01:22:40;23.17;53.57
72772;SHT30;60894;42.544;1.516;2023-08-20T01:25:22;22.97;54.64
72772;SHT30;60894;42.544;1.516;2023-08-20T01:27:58;22.77;54.62
72772;SHT30;60894;42.544;1.516;2023-08-20T01:30:30;22.66;55.08
72772;SHT30;60894;42.544;1.516;2023-08-20T01:32:58;22.66;55.16
72772;SHT30;60894;42.544;1.516;2023-08-20T01:35:25;22.55;55.97
72772;SHT30;60894;42.544;1.516;2023-08-20T01:37:52;22.70;55.01
72772;SHT30;60894;42.544;1.516;2023-08-20T01:40:19;22.86;54.04
72772;SHT30;60894;42.544;1.516;2023-08-20T01:42:46;22.60;55.61
72772;SHT30;60894;42.544;1.516;2023-08-20T01:45:13;22.73;54.67
72772;SHT30;60894;42.544;1.516;2023-08-20T01:47:41;22.73;55.14
72772;SHT30;60894;42.544;1.516;2023-08-20T01:50:09;22.93;54.19
72772;SHT30;60894;42.544;1.516;2023-08-20T01:52:36;22.84;54.51
72772;SHT30;60894;42.544;1.516;2023-08-20T01:55:04;22.72;55.37
72772;SHT30;60894;42.544;1.516;2023-08-20T01:57:31;22.86;54.54
72772;SHT30;60894;42.544;1.516;2023-08-20T01:59:58;22.90;54.57
72772;SHT30;60894;42.544;1.516;2023-08-20T02:02:25;23.01;53.85
72772;SHT30;60894;42.544;1.516;2023-08-20T02:04:54;23.14;53.28
72772;SHT30;60894;42.544;1.516;2023-08-20T02:07:20;23.25;53.11
72772;SHT30;60894;42.544;1.516;2023-08-20T02:09:47;22.99;54.26
72772;SHT30;60894;42.544;1.516;2023-08-20T02:12:15;22.93;54.37
72772;SHT30;60894;42.544;1.516;2023-08-20T02:14:42;22.92;54.25
72772;SHT30;60894;42.544;1.516;2023-08-20T02:17:09;22.89;54.40
72772;SHT30;60894;42.544;1.516;2023-08-20T02:19:37;22.70;55.04
72772;SHT30;60894;42.544;1.516;2023-08-20T02:22:06;22.92;53.66
72772;SHT30;60894;42.544;1.516;2023-08-20T02:24:33;22.70;54.83
72772;SHT30;60894;42.544;1.516;2023-08-20T02:27:00;22.46;55.23
72772;SHT30;60894;42.544;1.516;2023-08-20T02:29:27;22.43;55.54
72772;SHT30;60894;42.544;1.516;2023-08-20T02:31:54;22.60;54.73
72772;SHT30;60894;42.544;1.516;2023-08-20T02:34:21;22.35;56.05
72772;SHT30;60894;42.544;1.516;2023-08-20T02:36:48;22.13;56.99
72772;SHT30;60894;42.544;1.516;2023-08-20T02:39:17;22.42;55.54
72772;SHT30;60894;42.544;1.516;2023-08-20T02:41:45;22.62;55.04
72772;SHT30;60894;42.544;1.516;2023-08-20T02:44:12;22.70;54.77
72772;SHT30;60894;42.544;1.516;2023-08-20T02:46:39;22.62;55.00
72772;SHT30;60894;42.544;1.516;2023-08-20T02:49:06;22.51;54.94
72772;SHT30;60894;42.544;1.516;2023-08-20T02:51:33;22.51;55.51
72772;SHT30;60894;42.544;1.516;2023-08-20T02:54:00;22.29;56.06
72772;SHT30;60894;42.544;1.516;2023-08-20T02:56:29;22.35;55.74
72772;SHT30;60894;42.544;1.516;2023-08-20T02:58:55;22.16;56.43
72772;SHT30;60894;42.544;1.516;2023-08-20T03:01:23;22.22;55.88
72772;SHT30;60894;42.544;1.516;2023-08-20T03:03:51;22.25;56.24
72772;SHT30;60894;42.544;1.516;2023-08-20T03:06:17;22.23;56.17
72772;SHT30;60894;42.544;1.516;2023-08-20T03:08:45;22.25;55.94
72772;SHT30;60894;42.544;1.516;2023-08-20T03:11:12;22.06;56.89
72772;SHT30;60894;42.544;1.516;2023-08-20T03:13:40;21.95;56.65
72772;SHT30;60894;42.544;1.516;2023-08-20T03:16:07;22.02;56.67
72772;SHT30;60894;42.544;1.516;2023-08-20T03:18:34;21.87;56.99
72772;SHT30;60894;42.544;1.516;2023-08-20T03:21:01;22.08;56.22
72772;SHT30;60894;42.544;1.516;2023-08-20T03:23:29;22.28;55.82
72772;SHT30;60894;42.544;1.516;2023-08-20T03:25:57;22.15;56.26
72772;SHT30;60894;42.544;1.516;2023-08-20T03:28:24;22.26;55.63
72772;SHT30;60894;42.544;1.516;2023-08-20T03:30:52;22.33;54.54
72772;SHT30;60894;42.544;1.516;2023-08-20T03:33:19;22.42;55.25
72772;SHT30;60894;42.544;1.516;2023-08-20T03:35:46;22.29;55.79
72772;SHT30;60894;42.544;1.516;2023-08-20T03:38:13;22.11;56.37
72772;SHT30;60894;42.544;1.516;2023-08-20T03:40:40;21.80;57.68
72772;SHT30;60894;42.544;1.516;2023-08-20T03:43:07;21.73;57.92
72772;SHT30;60894;42.544;1.516;2023-08-20T03:45:34;21.51;58.18
72772;SHT30;60894;42.544;1.516;2023-08-20T03:48:03;21.47;58.61
72772;SHT30;60894;42.544;1.516;2023-08-20T03:50:30;21.77;57.24
72772;SHT30;60894;42.544;1.516;2023-08-20T03:52:56;21.75;57.38
72772;SHT30;60894;42.544;1.516;2023-08-20T03:55:23;21.71;57.23
72772;SHT30;60894;42.544;1.516;2023-08-20T03:57:50;22.00;55.94
72772;SHT30;60894;42.544;1.516;2023-08-20T04:00:17;22.11;56.10
72772;SHT30;60894;42.544;1.516;2023-08-20T04:02:44;22.02;56.33
72772;SHT30;60894;42.544;1.516;2023-08-20T04:05:12;22.08;55.97
72772;SHT30;60894;42.544;1.516;2023-08-20T04:07:39;22.19;55.14
72772;SHT30;60894;42.544;1.516;2023-08-20T04:10:08;22.28;55.44
72772;SHT30;60894;42.544;1.516;2023-08-20T04:12:35;22.02;56.37
72772;SHT30;60894;42.544;1.516;2023-08-20T04:15:02;22.13;56.09
72772;SHT30;60894;42.544;1.516;2023-08-20T04:17:29;21.91;56.78
72772;SHT30;60894;42.544;1.516;2023-08-20T04:19:56;22.08;55.66
72772;SHT30;60894;42.544;1.516;2023-08-20T04:22:25;22.18;55.49
72772;SHT30;60894;42.544;1.516;2023-08-20T04:24:52;22.26;55.48
72772;SHT30;60894;42.544;1.516;2023-08-20T04:27:19;21.84;56.90
72772;SHT30;60894;42.544;1.516;2023-08-20T04:29:46;21.87;56.45
72772;SHT30;60894;42.544;1.516;2023-08-20T04:32:13;21.82;56.39
72772;SHT30;60894;42.544;1.516;2023-08-20T04:34:40;21.82;56.72
72772;SHT30;60894;42.544;1.516;2023-08-20T04:37:07;21.92;56.19
72772;SHT30;60894;42.544;1.516;2023-08-20T04:39:35;21.50;57.34
72772;SHT30;60894;42.544;1.516;2023-08-20T04:42:02;21.75;55.62
72772;SHT30;60894;42.544;1.516;2023-08-20T04:44:29;21.90;55.67
72772;SHT30;60894;42.544;1.516;2023-08-20T04:46:56;22.00;56.08
72772;SHT30;60894;42.544;1.516;2023-08-20T04:49:23;22.09;55.49
72772;SHT30;60894;42.544;1.516;2023-08-20T04:51:53;22.13;55.53
72772;SHT30;60894;42.544;1.516;2023-08-20T04:54:20;22.16;55.26
72772;SHT30;60894;42.544;1.516;2023-08-20T04:56:49;21.68;57.03
72772;SHT30;60894;42.544;1.516;2023-08-20T04:59:15;21.60;57.30
72772;SHT30;60894;42.544;1.516;2023-08-20T05:01:42;21.82;56.32
72772;SHT30;60894;42.544;1.516;2023-08-20T05:04:09;21.87;55.66
72772;SHT30;60894;42.544;1.516;2023-08-20T05:06:36;21.90;56.14
72772;SHT30;60894;42.544;1.516;2023-08-20T05:09:03;21.97;55.61
72772;SHT30;60894;42.544;1.516;2023-08-20T05:11:30;21.90;55.44
72772;SHT30;60894;42.544;1.516;2023-08-20T05:14:00;21.84;55.70
72772;SHT30;60894;42.544;1.516;2023-08-20T05:16:27;21.88;55.58
72772;SHT30;60894;42.544;1.516;2023-08-20T05:18:54;21.80;55.90
72772;SHT30;60894;42.544;1.516;2023-08-20T05:21:20;21.81;55.30
72772;SHT30;60894;42.544;1.516;2023-08-20T05:23:47;21.81;55.86
72772;SHT30;60894;42.544;1.516;2023-08-20T05:26:14;21.95;55.20
72772;SHT30;60894;42.544;1.516;2023-08-20T05:28:41;21.98;54.68
72772;SHT30;60894;42.544;1.516;2023-08-20T05:31:09;21.97;54.64
72772;SHT30;60894;42.544;1.516;2023-08-20T05:33:37;21.97;55.20
72772;SHT30;60894;42.544;1.516;2023-08-20T05:36:04;21.94;55.59
72772;SHT30;60894;42.544;1.516;2023-08-20T05:38:31;21.87;55.01
72772;SHT30;60894;42.544;1.516;2023-08-20T05:40:58;21.67;56.71
72772;SHT30;60894;42.544;1.516;2023-08-20T05:43:25;21.80;55.52
72772;SHT30;60894;42.544;1.516;2023-08-20T05:45:52;21.65;56.04
72772;SHT30;60894;42.544;1.516;2023-08-20T05:48:20;21.75;54.82
72772;SHT30;60894;42.544;1.516;2023-08-20T05:50:47;21.63;56.22
72772;SHT30;60894;42.544;1.516;2023-08-20T05:53:14;21.65;55.65
72772;SHT30;60894;42.544;1.516;2023-08-20T05:55:41;21.63;56.07
72772;SHT30;60894;42.544;1.516;2023-08-20T05:58:08;21.51;56.20
72772;SHT30;60894;42.544;1.516;2023-08-20T06:00:35;21.57;56.24
72772;SHT30;60894;42.544;1.516;2023-08-20T06:03:02;21.65;55.40
72772;SHT30;60894;42.544;1.516;2023-08-20T06:05:30;21.77;55.31
72772;SHT30;60894;42.544;1.516;2023-08-20T06:07:57;21.84;54.87
72772;SHT30;60894;42.544;1.516;2023-08-20T06:10:24;21.87;54.69
72772;SHT30;60894;42.544;1.516;2023-08-20T06:12:52;21.95;54.02
72772;SHT30;60894;42.544;1.516;2023-08-20T06:15:19;21.90;54.77
72772;SHT30;60894;42.544;1.516;2023-08-20T06:17:46;21.55;56.36
72772;SHT30;60894;42.544;1.516;2023-08-20T06:20:12;21.51;56.16
72772;SHT30;60894;42.544;1.516;2023-08-20T06:22:41;21.49;56.27
72772;SHT30;60894;42.544;1.516;2023-08-20T06:25:08;21.61;55.38
72772;SHT30;60894;42.544;1.516;2023-08-20T06:27:35;21.74;55.11
72772;SHT30;60894;42.544;1.516;2023-08-20T06:30:02;21.81;55.18
72772;SHT30;60894;42.544;1.516;2023-08-20T06:32:29;21.70;55.57
72772;SHT30;60894;42.544;1.516;2023-08-20T06:34:56;21.75;55.18
72772;SHT30;60894;42.544;1.516;2023-08-20T06:37:23;21.82;54.50
72772;SHT30;60894;42.544;1.516;2023-08-20T06:39:51;21.85;54.19
72772;SHT30;60894;42.544;1.516;2023-08-20T06:42:18;21.90;55.04
72772;SHT30;60894;42.544;1.516;2023-08-20T06:44:45;21.87;54.99
72772;SHT30;60894;42.544;1.516;2023-08-20T06:47:12;21.92;55.04
72772;SHT30;60894;42.544;1.516;2023-08-20T06:49:40;21.90;55.20
72772;SHT30;60894;42.544;1.516;2023-08-20T06:52:07;22.00;54.97
72772;SHT30;60894;42.544;1.516;2023-08-20T06:54:34;22.15;54.27
72772;SHT30;60894;42.544;1.516;2023-08-20T06:57:03;22.11;54.25
72772;SHT30;60894;42.544;1.516;2023-08-20T06:59:30;22.32;53.81
72772;SHT30;60894;42.544;1.516;2023-08-20T07:01:57;22.13;55.03
72772;SHT30;60894;42.544;1.516;2023-08-20T07:04:24;22.19;54.40
72772;SHT30;60894;42.544;1.516;2023-08-20T07:06:51;22.21;54.48
72772;SHT30;60894;42.544;1.516;2023-08-20T07:09:18;22.08;55.14
72772;SHT30;60894;42.544;1.516;2023-08-20T07:11:45;22.18;54.69
72772;SHT30;60894;42.544;1.516;2023-08-20T07:14:13;22.09;54.74
72772;SHT30;60894;42.544;1.516;2023-08-20T07:16:40;21.91;55.45
72772;SHT30;60894;42.544;1.516;2023-08-20T07:19:07;22.05;55.19
72772;SHT30;60894;42.544;1.516;2023-08-20T07:21:34;22.04;55.31
72772;SHT30;60894;42.544;1.516;2023-08-20T07:24:01;22.01;55.16
72772;SHT30;60894;42.544;1.516;2023-08-20T07:26:29;22.05;55.19
72772;SHT30;60894;42.544;1.516;2023-08-20T07:28:56;22.21;54.31
72772;SHT30;60894;42.544;1.516;2023-08-20T07:31:25;22.18;54.96
72772;SHT30;60894;42.544;1.516;2023-08-20T07:33:53;22.25;54.96
72772;SHT30;60894;42.544;1.516;2023-08-20T07:36:22;22.33;54.46
72772;SHT30;60894;42.544;1.516;2023-08-20T07:38:49;22.48;54.47
72772;SHT30;60894;42.544;1.516;2023-08-20T07:41:17;22.59;53.79
72772;SHT30;60894;42.544;1.516;2023-08-20T07:43:45;22.74;53.20
72772;SHT30;60894;42.544;1.516;2023-08-20T07:46:13;22.84;53.55
72772;SHT30;60894;42.544;1.516;2023-08-20T07:48:41;22.90;53.14
72772;SHT30;60894;42.544;1.516;2023-08-20T07:51:08;22.94;53.04
72772;SHT30;60894;42.544;1.516;2023-08-20T07:53:35;23.03;52.65
72772;SHT30;60894;42.544;1.516;2023-08-20T07:56:02;23.13;52.19
72772;SHT30;60894;42.544;1.516;2023-08-20T07:58:30;23.21;51.91
72772;SHT30;60894;42.544;1.516;2023-08-20T08:00:57;23.25;51.19
72772;SHT30;60894;42.544;1.516;2023-08-20T08:03:25;23.35;51.57
72772;SHT30;60894;42.544;1.516;2023-08-20T08:05:53;23.44;51.97
72772;SHT30;60894;42.544;1.516;2023-08-20T08:08:21;23.54;51.86
72772;SHT30;60894;42.544;1.516;2023-08-20T08:10:50;23.66;51.71
72772;SHT30;60894;42.544;1.516;2023-08-20T08:13:20;23.78;51.42
72772;SHT30;60894;42.544;1.516;2023-08-20T08:15:47;23.82;51.08
72772;SHT30;60894;42.544;1.516;2023-08-20T08:18:14;23.89;50.86
72772;SHT30;60894;42.544;1.516;2023-08-20T08:20:41;24.01;50.31
72772;SHT30;60894;42.544;1.516;2023-08-20T08:23:10;24.09;50.55
72772;SHT30;60894;42.544;1.516;2023-08-20T08:25:36;24.23;48.94
72772;SHT30;60894;42.544;1.516;2023-08-20T08:28:04;24.33;49.12
72772;SHT30;60894;42.544;1.516;2023-08-20T08:30:31;24.47;48.94
72772;SHT30;60894;42.544;1.516;2023-08-20T08:32:58;24.67;47.94
72772;SHT30;60894;42.544;1.516;2023-08-20T08:35:25;24.75;47.46
72772;SHT30;60894;42.544;1.516;2023-08-20T08:37:52;24.88;47.08
72772;SHT30;60894;42.544;1.516;2023-08-20T08:40:21;25.02;46.68
72772;SHT30;60894;42.544;1.516;2023-08-20T08:42:49;25.15;46.36
72772;SHT30;60894;42.544;1.516;2023-08-20T08:45:18;25.29;45.98
72772;SHT30;60894;42.544;1.516;2023-08-20T08:47:45;25.41;45.80
72772;SHT30;60894;42.544;1.516;2023-08-20T08:50:13;25.50;45.57
72772;SHT30;60894;42.544;1.516;2023-08-20T08:52:41;25.69;44.88
72772;SHT30;60894;42.544;1.516;2023-08-20T08:55:08;25.83;44.43
72772;SHT30;60894;42.544;1.516;2023-08-20T08:57:37;25.93;44.31
72772;SHT30;60894;42.544;1.516;2023-08-20T09:00:05;26.08;44.14
72772;SHT30;60894;42.544;1.516;2023-08-20T09:02:32;26.20;44.31
72772;SHT30;60894;42.544;1.516;2023-08-20T09:05:02;26.38;43.45
72772;SHT30;60894;42.544;1.516;2023-08-20T09:07:31;26.55;43.38
72772;SHT30;60894;42.544;1.516;2023-08-20T09:09:59;26.74;41.77
72772;SHT30;60894;42.544;1.516;2023-08-20T09:12:26;26.93;41.87
72772;SHT30;60894;42.544;1.516;2023-08-20T09:14:55;27.07;41.33
72772;SHT30;60894;42.544;1.516;2023-08-20T09:17:26;27.27;41.63
72772;SHT30;60894;42.544;1.516;2023-08-20T09:19:55;27.44;41.32
72772;SHT30;60894;42.544;1.516;2023-08-20T09:22:23;27.64;40.95
72772;SHT30;60894;42.544;1.516;2023-08-20T09:24:52;27.84;39.54
72772;SHT30;60894;42.544;1.516;2023-08-20T09:27:20;27.98;38.77
72772;SHT30;60894;42.544;1.516;2023-08-20T09:29:48;28.04;38.22
72772;SHT30;60894;42.544;1.516;2023-08-20T09:32:18;28.26;38.13
72772;SHT30;60894;42.544;1.516;2023-08-20T09:34:45;28.41;37.65
72772;SHT30;60894;42.544;1.516;2023-08-20T09:37:14;28.49;37.40
72772;SHT30;60894;42.544;1.516;2023-08-20T09:39:41;28.69;37.22
72772;SHT30;60894;42.544;1.516;2023-08-20T09:42:09;28.77;37.17
72772;SHT30;60894;42.544;1.516;2023-08-20T09:44:37;28.92;37.02
72772;SHT30;60894;42.544;1.516;2023-08-20T09:47:06;29.03;37.56
72772;SHT30;60894;42.544;1.516;2023-08-20T09:49:38;29.14;36.74
72772;SHT30;60894;42.544;1.516;2023-08-20T09:52:06;29.30;36.49
72772;SHT30;60894;42.544;1.516;2023-08-20T09:54:45;29.41;34.94
72772;SHT30;60894;42.544;1.516;2023-08-20T09:57:23;29.54;34.35
72772;SHT30;60894;42.544;1.516;2023-08-20T09:59:52;29.74;34.18
72772;SHT30;60894;42.544;1.516;2023-08-20T10:02:20;29.92;33.21
72772;SHT30;60894;42.544;1.516;2023-08-20T10:04:49;29.96;33.12
72772;SHT30;60894;42.544;1.516;2023-08-20T10:07:16;30.15;32.02
72772;SHT30;60894;42.544;1.516;2023-08-20T10:09:43;30.29;31.57
72772;SHT30;60894;42.544;1.516;2023-08-20T10:12:12;30.39;30.58
72772;SHT30;60894;42.544;1.516;2023-08-20T10:14:39;30.56;30.81
72772;SHT30;60894;42.544;1.516;2023-08-20T10:17:08;30.68;30.58
72772;SHT30;60894;42.544;1.516;2023-08-20T10:19:36;30.87;30.26
72772;SHT30;60894;42.544;1.516;2023-08-20T10:22:06;30.97;30.83
72772;SHT30;60894;42.544;1.516;2023-08-20T10:24:40;30.94;30.28
72772;SHT30;60894;42.544;1.516;2023-08-20T10:27:09;31.12;30.46
72772;SHT30;60894;42.544;1.516;2023-08-20T10:29:37;31.35;29.94
72772;SHT30;60894;42.544;1.516;2023-08-20T10:32:06;31.46;28.92
72772;SHT30;60894;42.544;1.516;2023-08-20T10:34:33;31.55;29.44
72772;SHT30;60894;42.544;1.516;2023-08-20T10:37:04;31.52;29.58
72772;SHT30;60894;42.544;1.516;2023-08-20T10:39:35;31.58;29.77
72772;SHT30;60894;42.544;1.516;2023-08-20T10:42:09;31.70;29.11
72772;SHT30;60894;42.544;1.516;2023-08-20T10:44:58;31.80;29.22
72772;SHT30;60894;42.544;1.516;2023-08-20T10:47:26;31.92;28.95
72772;SHT30;60894;42.544;1.516;2023-08-20T10:49:53;32.04;29.37
72772;SHT30;60894;42.544;1.516;2023-08-20T10:52:22;32.21;28.71
72772;SHT30;60894;42.544;1.516;2023-08-20T10:54:50;32.38;28.70
72772;SHT30;60894;42.544;1.516;2023-08-20T10:57:18;32.55;27.83
72772;SHT30;60894;42.544;1.516;2023-08-20T10:59:56;32.65;28.40
72772;SHT30;60894;42.544;1.516;2023-08-20T11:02:24;32.67;27.78
72772;SHT30;60894;42.544;1.516;2023-08-20T11:04:52;32.58;27.00
72772;SHT30;60894;42.544;1.516;2023-08-20T11:07:21;32.72;27.50
72772;SHT30;60894;42.544;1.516;2023-08-20T11:09:50;32.84;27.10
72772;SHT30;60894;42.544;1.516;2023-08-20T11:12:20;33.15;27.04
72772;SHT30;60894;42.544;1.516;2023-08-20T11:14:47;33.36;26.98
72772;SHT30;60894;42.544;1.516;2023-08-20T11:17:14;33.46;27.03
72772;SHT30;60894;42.544;1.516;2023-08-20T11:19:41;33.12;27.12
72772;SHT30;60894;42.544;1.516;2023-08-20T11:22:08;33.35;27.87
72772;SHT30;60894;42.544;1.516;2023-08-20T11:24:37;33.55;27.65
72772;SHT30;60894;42.544;1.516;2023-08-20T11:27:04;33.76;26.84
72772;SHT30;60894;42.544;1.516;2023-08-20T11:29:31;33.80;26.99
72772;SHT30;60894;42.544;1.516;2023-08-20T11:32:00;33.89;27.03
72772;SHT30;60894;42.544;1.516;2023-08-20T11:34:29;34.04;27.04
72772;SHT30;60894;42.544;1.516;2023-08-20T11:36:58;33.90;26.67
72772;SHT30;60894;42.544;1.516;2023-08-20T11:39:25;34.10;26.63
72772;SHT30;60894;42.544;1.516;2023-08-20T11:41:53;34.33;27.20
72772;SHT30;60894;42.544;1.516;2023-08-20T11:44:21;34.58;27.27
72772;SHT30;60894;42.544;1.516;2023-08-20T11:46:48;34.68;27.01
72772;SHT30;60894;42.544;1.516;2023-08-20T11:49:15;34.95;27.11
72772;SHT30;60894;42.544;1.516;2023-08-20T11:51:44;34.85;26.15
72772;SHT30;60894;42.544;1.516;2023-08-20T11:54:13;35.06;26.14
72772;SHT30;60894;42.544;1.516;2023-08-20T11:56:43;35.03;26.05
72772;SHT30;60894;42.544;1.516;2023-08-20T11:59:12;34.93;25.96
72772;SHT30;60894;42.544;1.516;2023-08-20T12:01:40;35.20;26.15
72772;SHT30;60894;42.544;1.516;2023-08-20T12:04:08;35.56;25.72
72772;SHT30;60894;42.544;1.516;2023-08-20T12:06:36;35.69;25.24
72772;SHT30;60894;42.544;1.516;2023-08-20T12:09:18;36.05;25.23
72772;SHT30;60894;42.544;1.516;2023-08-20T12:11:48;36.45;24.81
72772;SHT30;60894;42.544;1.516;2023-08-20T12:14:17;36.52;24.64
72772;SHT30;60894;42.544;1.516;2023-08-20T12:16:45;36.83;24.21
72772;SHT30;60894;42.544;1.516;2023-08-20T12:19:12;36.92;24.25
72772;SHT30;60894;42.544;1.516;2023-08-20T12:21:40;36.90;24.41
72772;SHT30;60894;42.544;1.516;2023-08-20T12:24:08;36.18;24.07
72772;SHT30;60894;42.544;1.516;2023-08-20T12:26:35;35.54;24.79
72772;SHT30;60894;42.544;1.516;2023-08-20T12:29:03;35.53;25.08
72772;SHT30;60894;42.544;1.516;2023-08-20T12:31:31;35.20;25.51
72772;SHT30;60894;42.544;1.516;2023-08-20T12:33:59;34.93;26.15
72772;SHT30;60894;42.544;1.516;2023-08-20T12:36:26;34.72;26.47
72772;SHT30;60894;42.544;1.516;2023-08-20T12:38:53;34.48;26.95
72772;SHT30;60894;42.544;1.516;2023-08-20T12:41:20;34.28;27.33
72772;SHT30;60894;42.544;1.516;2023-08-20T12:43:47;33.97;27.85
72772;SHT30;60894;42.544;1.516;2023-08-20T12:46:13;33.96;27.90
72772;SHT30;60894;42.544;1.516;2023-08-20T12:48:42;33.81;28.23
72772;SHT30;60894;42.544;1.516;2023-08-20T12:51:09;33.78;28.60
72772;SHT30;60894;42.544;1.516;2023-08-20T12:53:39;33.37;28.27
72772;SHT30;60894;42.544;1.516;2023-08-20T12:56:06;33.37;28.63
72772;SHT30;60894;42.544;1.516;2023-08-20T12:58:33;33.47;28.61
72772;SHT30;60894;42.544;1.516;2023-08-20T13:01:00;33.47;28.17
72772;SHT30;60894;42.544;1.516;2023-08-20T13:03:28;33.32;28.39
72772;SHT30;60894;42.544;1.516;2023-08-20T13:05:57;33.22;28.71
72772;SHT30;60894;42.544;1.516;2023-08-20T13:08:24;33.30;28.49
72772;SHT30;60894;42.544;1.516;2023-08-20T13:10:53;33.22;29.27
72772;SHT30;60894;42.544;1.516;2023-08-20T13:13:22;33.35;28.83
72772;SHT30;60894;42.544;1.516;2023-08-20T13:15:51;33.96;28.24
72772;SHT30;60894;42.544;1.516;2023-08-20T13:18:19;34.20;27.86
72772;SHT30;60894;42.544;1.516;2023-08-20T13:20:51;34.23;27.64
72772;SHT30;60894;42.544;1.516;2023-08-20T13:23:19;34.18;27.72
72772;SHT30;60894;42.544;1.516;2023-08-20T13:25:46;34.27;27.96
72772;SHT30;60894;42.544;1.516;2023-08-20T13:28:13;34.27;28.05
72772;SHT30;60894;42.544;1.516;2023-08-20T13:30:40;34.28;27.86
72772;SHT30;60894;42.544;1.516;2023-08-20T13:33:07;34.54;27.42
72772;SHT30;60894;42.544;1.516;2023-08-20T13:35:34;34.71;27.16
72772;SHT30;60894;42.544;1.516;2023-08-20T13:38:01;34.66;27.32
72772;SHT30;60894;42.544;1.516;2023-08-20T13:40:31;34.49;27.43
72772;SHT30;60894;42.544;1.516;2023-08-20T13:42:58;34.20;27.57
72772;SHT30;60894;42.544;1.516;2023-08-20T13:45:25;34.10;27.53
72772;SHT30;60894;42.544;1.516;2023-08-20T13:47:52;33.97;27.68
72772;SHT30;60894;42.544;1.516;2023-08-20T13:50:19;33.57;27.81
72772;SHT30;60894;42.544;1.516;2023-08-20T13:52:46;33.36;27.96
72772;SHT30;60894;42.544;1.516;2023-08-20T13:55:13;33.26;28.11
72772;SHT30;60894;42.544;1.516;2023-08-20T13:57:42;32.99;28.45
72772;SHT30;60894;42.544;1.516;2023-08-20T14:00:09;33.02;28.23
72772;SHT30;60894;42.544;1.516;2023-08-20T14:02:37;32.92;28.36
72772;SHT30;60894;42.544;1.516;2023-08-20T14:05:05;32.88;27.78
72772;SHT30;60894;42.544;1.516;2023-08-20T14:07:32;32.71;28.11
72772;SHT30;60894;42.544;1.516;2023-08-20T14:09:59;32.51;28.07
72772;SHT30;60894;42.544;1.516;2023-08-20T14:12:26;32.34;28.73
72772;SHT30;60894;42.544;1.516;2023-08-20T14:14:55;32.16;28.76
72772;SHT30;60894;42.544;1.516;2023-08-20T14:17:22;32.35;29.19
72772;SHT30;60894;42.544;1.516;2023-08-20T14:19:49;32.28;29.21
72772;SHT30;60894;42.544;1.516;2023-08-20T14:22:16;32.47;28.63
72772;SHT30;60894;42.544;1.516;2023-08-20T14:24:43;32.40;29.02
72772;SHT30;60894;42.544;1.516;2023-08-20T14:27:10;32.28;29.03
72772;SHT30;60894;42.544;1.516;2023-08-20T14:29:37;32.27;29.64
72772;SHT30;60894;42.544;1.516;2023-08-20T14:32:06;32.23;28.71
72772;SHT30;60894;42.544;1.516;2023-08-20T14:34:33;32.14;28.82
72772;SHT30;60894;42.544;1.516;2023-08-20T14:37:00;32.16;29.42
72772;SHT30;60894;42.544;1.516;2023-08-20T14:39:26;32.21;29.03
72772;SHT30;60894;42.544;1.516;2023-08-20T14:41:56;32.23;29.09
72772;SHT30;60894;42.544;1.516;2023-08-20T14:44:24;32.17;29.01
72772;SHT30;60894;42.544;1.516;2023-08-20T14:46:50;32.02;29.39
72772;SHT30;60894;42.544;1.516;2023-08-20T14:49:19;31.93;29.54
72772;SHT30;60894;42.544;1.516;2023-08-20T14:51:46;31.98;29.07
72772;SHT30;60894;42.544;1.516;2023-08-20T14:54:13;32.04;28.68
72772;SHT30;60894;42.544;1.516;2023-08-20T14:56:40;32.09;28.41
72772;SHT30;60894;42.544;1.516;2023-08-20T14:59:07;32.13;28.49
72772;SHT30;60894;42.544;1.516;2023-08-20T15:01:35;32.06;28.47
72772;SHT30;60894;42.544;1.516;2023-08-20T15:04:02;31.86;28.69
72772;SHT30;60894;42.544;1.516;2023-08-20T15:06:31;31.76;29.25
72772;SHT30;60894;42.544;1.516;2023-08-20T15:08:58;31.85;29.24
72772;SHT30;60894;42.544;1.516;2023-08-20T15:11:24;31.79;29.23
72772;SHT30;60894;42.544;1.516;2023-08-20T15:13:53;31.86;29.13
72772;SHT30;60894;42.544;1.516;2023-08-20T15:16:20;31.92;29.27
72772;SHT30;60894;42.544;1.516;2023-08-20T15:18:47;32.14;28.63
72772;SHT30;60894;42.544;1.516;2023-08-20T15:21:14;32.44;28.15
72772;SHT30;60894;42.544;1.516;2023-08-20T15:23:42;32.53;28.08
72772;SHT30;60894;42.544;1.516;2023-08-20T15:26:09;32.58;27.94
72772;SHT30;60894;42.544;1.516;2023-08-20T15:28:36;32.47;28.34
72772;SHT30;60894;42.544;1.516;2023-08-20T15:31:03;32.47;28.03
72772;SHT30;60894;42.544;1.516;2023-08-20T15:33:30;32.34;28.26